Time;durP1;ratioP1;P1;durP2;ratioP2;P2;SDS_P1;SDS_P2;PMS_P1;PMS_P2;Temp;Humidity;BMP_temperature;BMP_pressure;BME280_temperature;BME280_humidity;BME280_pressure;Samples;Min_cycle;Max_cycle;Signal;HPM_P1;HPM_P2
2022/10/22 00:00:43;;;;;;;6.60;2.30;;;;;;;24.45;43.19;100508.09;5013622;28;20029;-58
2022/10/22 00:03:11;;;;;;;9.30;2.65;;;;;;;24.42;43.24;100504.59;5013500;28;20144;-58
2022/10/22 00:05:39;;;;;;;7.22;2.17;;;;;;;24.45;43.39;100514.22;5013905;28;20083;-58
2022/10/22 00:08:08;;;;;;;7.40;2.63;;;;;;;24.43;43.10;100514.22;4996357;28;20025;-58
2022/10/22 00:10:37;;;;;;;8.80;2.33;;;;;;;24.46;43.30;100515.09;5013984;28;20041;-58
2022/10/22 00:13:06;;;;;;;7.65;2.10;;;;;;;24.39;43.30;100512.44;5013591;28;20478;-56
2022/10/22 00:15:34;;;;;;;11.52;2.95;;;;;;;24.45;43.31;100518.59;5013334;28;20030;-56
2022/10/22 00:18:03;;;;;;;5.72;1.92;;;;;;;24.34;43.22;100503.69;4996407;28;20026;-57
2022/10/22 00:20:33;;;;;;;7.38;2.42;;;;;;;24.43;43.24;100519.47;5013230;28;20030;-56
2022/10/22 00:23:01;;;;;;;9.80;2.63;;;;;;;24.46;43.02;100520.34;5013768;28;20022;-53
2022/10/22 00:25:30;;;;;;;6.93;1.90;;;;;;;24.38;43.22;100529.03;4995873;28;20026;-58
2022/10/22 00:27:59;;;;;;;7.90;2.63;;;;;;;24.38;43.33;100520.31;5013273;28;20033;-52
2022/10/22 00:30:27;;;;;;;7.30;2.40;;;;;;;24.35;43.42;100521.16;5012846;28;20099;-57
2022/10/22 00:32:56;;;;;;;8.43;2.83;;;;;;;24.34;43.17;100516.78;5012806;28;20095;-57
2022/10/22 00:35:25;;;;;;;8.82;2.70;;;;;;;24.39;43.05;100519.44;5013506;28;20050;-57
2022/10/22 00:37:53;;;;;;;9.13;2.80;;;;;;;24.37;43.36;100524.66;5013206;28;20025;-54
2022/10/22 00:40:22;;;;;;;9.73;2.83;;;;;;;24.34;43.50;100523.78;5013250;28;20026;-57
2022/10/22 00:42:50;;;;;;;9.88;2.63;;;;;;;24.38;43.44;100531.66;5013038;28;20014;-57
2022/10/22 00:45:25;;;;;;;7.10;2.45;;;;;;;24.37;43.52;100534.28;5013213;28;20486;-57
2022/10/22 00:48:01;;;;;;;6.43;2.28;;;;;;;24.35;43.07;100531.66;4995724;28;20036;-58
2022/10/22 00:50:50;;;;;;;6.70;2.45;;;;;;;24.32;43.66;100536.00;5013283;28;20057;-57
2022/10/22 00:53:23;;;;;;;10.27;3.08;;;;;;;24.34;43.43;100537.75;4993048;28;20045;-55
2022/10/22 00:55:52;;;;;;;7.32;2.08;;;;;;;24.38;43.46;100536.91;5013410;28;20466;-57
2022/10/22 00:58:23;;;;;;;8.10;2.42;;;;;;;24.32;43.55;100541.25;4979375;28;20030;-58
2022/10/22 01:00:52;;;;;;;8.65;2.47;;;;;;;24.37;43.31;100537.78;5013311;28;20026;-57
2022/10/22 01:03:20;;;;;;;5.18;1.80;;;;;;;24.32;43.38;100533.38;5012872;28;20099;-56
2022/10/22 01:06:00;;;;;;;6.28;2.13;;;;;;;24.32;43.15;100547.38;5012746;28;20021;-57
2022/10/22 01:08:47;;;;;;;9.70;2.42;;;;;;;24.29;43.54;100552.59;5012886;28;20378;-55
2022/10/22 01:11:20;;;;;;;6.47;1.98;;;;;;;24.22;43.34;100548.19;5012753;28;20029;-57
2022/10/22 01:14:11;;;;;;;8.20;2.35;;;;;;;24.26;43.59;100548.19;5013060;28;20025;-54
2022/10/22 01:17:00;;;;;;;5.65;2.35;;;;;;;24.31;43.50;100545.63;5008789;28;20034;-58
2022/10/22 01:19:42;;;;;;;6.10;2.03;;;;;;;24.35;43.06;100546.50;5012587;28;20033;-57
2022/10/22 01:22:48;;;;;;;6.13;2.10;;;;;;;24.31;43.23;100548.25;4995546;28;20364;-58
2022/10/22 01:25:20;;;;;;;9.23;2.45;;;;;;;24.37;43.39;100548.25;4995413;28;20041;-57
2022/10/22 01:28:15;;;;;;;5.30;1.70;;;;;;;24.35;43.32;100557.00;4994631;28;20025;-57
2022/10/22 01:30:45;;;;;;;6.43;2.00;;;;;;;24.33;43.52;100548.25;4989705;28;20041;-57
2022/10/22 01:33:16;;;;;;;4.57;1.70;;;;;;;24.32;43.60;100556.97;5012782;28;20105;-57
2022/10/22 01:35:45;;;;;;;5.30;2.13;;;;;;;24.28;43.38;100556.94;4995246;28;20080;-54
2022/10/22 01:38:17;;;;;;;7.03;2.78;;;;;;;24.26;43.15;100553.44;4994562;28;20463;-55
2022/10/22 01:40:46;;;;;;;5.15;1.88;;;;;;;24.34;43.21;100560.47;5012832;28;20391;-58
2022/10/22 01:43:15;;;;;;;6.60;2.40;;;;;;;24.36;43.23;100567.47;4995403;28;20053;-55
2022/10/22 01:45:48;;;;;;;6.70;2.47;;;;;;;24.26;43.64;100560.44;4995031;28;20080;-58
2022/10/22 01:48:22;;;;;;;5.30;2.13;;;;;;;24.27;43.53;100570.06;5012590;28;20479;-53
2022/10/22 01:51:19;;;;;;;7.68;2.10;;;;;;;24.28;43.51;100567.44;4995335;28;20121;-57
2022/10/22 01:53:53;;;;;;;6.93;1.98;;;;;;;24.28;43.56;100567.44;5003131;28;20549;-54
2022/10/22 01:56:48;;;;;;;10.23;2.28;;;;;;;24.21;43.35;100572.63;4995157;28;20640;-58
2022/10/22 01:59:17;;;;;;;3.88;1.52;;;;;;;24.25;43.21;100569.19;4996591;28;20033;-58
2022/10/22 02:01:56;;;;;;;7.60;2.15;;;;;;;24.28;43.41;100571.81;5016254;28;20359;-58
2022/10/22 02:04:30;;;;;;;5.75;1.70;;;;;;;24.22;43.43;100564.81;4998185;28;20436;-58
2022/10/22 02:07:01;;;;;;;5.30;1.90;;;;;;;24.25;43.29;100577.03;4998766;28;20091;-57
2022/10/22 02:09:30;;;;;;;7.15;2.13;;;;;;;24.25;43.50;100577.03;5015802;28;20354;-58
2022/10/22 02:12:02;;;;;;;4.65;1.65;;;;;;;24.26;43.39;100574.41;5015633;28;20053;-57
2022/10/22 02:14:31;;;;;;;8.30;2.40;;;;;;;24.20;43.29;100574.41;5015894;28;20087;-54
2022/10/22 02:17:00;;;;;;;5.05;2.10;;;;;;;24.22;43.64;100572.66;5015837;28;20459;-57
2022/10/22 02:19:36;;;;;;;6.20;1.80;;;;;;;24.19;43.65;100571.75;4998408;28;20113;-57
2022/10/22 02:22:05;;;;;;;6.78;2.05;;;;;;;24.22;43.70;100574.41;5015242;28;20382;-57
2022/10/22 02:24:34;;;;;;;6.25;1.75;;;;;;;24.17;43.58;100563.00;4998142;28;20116;-56
2022/10/22 02:27:08;;;;;;;9.38;2.13;;;;;;;24.10;43.53;100568.22;5015056;28;20168;-56
2022/10/22 02:29:41;;;;;;;5.10;1.90;;;;;;;24.10;43.74;100565.59;5015362;28;20386;-57
2022/10/22 02:32:11;;;;;;;8.88;3.20;;;;;;;24.12;43.53;100555.13;5015269;28;20022;-57
2022/10/22 02:34:40;;;;;;;6.10;1.80;;;;;;;24.15;43.44;100564.75;4998265;28;20033;-57
2022/10/22 02:37:09;;;;;;;6.28;2.08;;;;;;;24.13;43.49;100562.13;4998180;28;20052;-57
2022/10/22 02:39:37;;;;;;;5.25;2.03;;;;;;;24.16;43.50;100569.13;5015531;28;20080;-55
2022/10/22 02:42:06;;;;;;;7.70;2.10;;;;;;;24.18;43.49;100565.66;5014966;28;20038;-54
2022/10/22 02:44:35;;;;;;;6.40;2.03;;;;;;;24.15;43.62;100557.75;5015508;28;20025;-57
2022/10/22 02:47:04;;;;;;;8.23;2.75;;;;;;;24.12;43.62;100579.59;5015240;28;20026;-56
2022/10/22 02:49:33;;;;;;;5.63;1.85;;;;;;;24.14;43.69;100568.25;5015167;28;20033;-56
2022/10/22 02:52:01;;;;;;;7.35;2.28;;;;;;;24.14;43.58;100574.34;5015571;28;20378;-55
2022/10/22 02:54:30;;;;;;;6.35;1.98;;;;;;;24.09;43.98;100579.56;5015023;28;20084;-56
2022/10/22 02:56:59;;;;;;;5.70;1.98;;;;;;;24.09;43.99;100581.28;5014857;28;20026;-54
2022/10/22 02:59:27;;;;;;;9.10;2.25;;;;;;;24.14;43.34;100573.50;5014375;28;20493;-56
2022/10/22 03:01:56;;;;;;;8.68;3.10;;;;;;;24.14;43.76;100568.25;5014892;28;20105;-58
2022/10/22 03:04:24;;;;;;;5.97;2.08;;;;;;;24.14;43.63;100569.09;5014703;28;20050;-56
2022/10/22 03:06:53;;;;;;;6.18;2.13;;;;;;;24.13;43.95;100575.22;5014186;28;20490;-51
2022/10/22 03:09:21;;;;;;;4.40;1.85;;;;;;;24.03;44.02;100553.31;5014428;28;20029;-57
2022/10/22 03:11:49;;;;;;;6.80;1.80;;;;;;;24.11;43.77;100569.09;4997457;28;20026;-58
2022/10/22 03:14:18;;;;;;;7.47;2.25;;;;;;;24.15;43.54;100575.25;5014503;28;20026;-57
2022/10/22 03:16:47;;;;;;;4.75;1.88;;;;;;;24.10;43.74;100569.94;5014199;28;20038;-57
2022/10/22 03:19:15;;;;;;;5.63;1.92;;;;;;;24.11;43.82;100577.84;5014479;28;20022;-56
2022/10/22 03:21:49;;;;;;;7.53;2.28;;;;;;;24.07;43.87;100583.91;4997379;28;20037;-57
2022/10/22 03:24:20;;;;;;;7.95;2.03;;;;;;;24.11;43.90;100584.81;4997462;28;20108;-57
2022/10/22 03:26:51;;;;;;;6.32;2.25;;;;;;;24.16;43.53;100575.25;4996937;28;20478;-57
2022/10/22 03:29:21;;;;;;;6.32;2.40;;;;;;;24.18;43.59;100567.38;5014520;28;20524;-57
2022/10/22 03:31:49;;;;;;;6.93;1.90;;;;;;;24.19;43.28;100561.25;5014290;28;20030;-58
2022/10/22 03:34:17;;;;;;;7.43;2.03;;;;;;;24.14;43.47;100576.09;5014067;28;20075;-57
2022/10/22 03:36:46;;;;;;;6.30;2.25;;;;;;;24.13;43.60;100575.22;5013654;28;20030;-58
2022/10/22 03:39:15;;;;;;;5.32;1.80;;;;;;;24.17;43.57;100586.59;5013857;28;20463;-57
2022/10/22 03:41:44;;;;;;;8.43;2.53;;;;;;;24.13;43.74;100593.56;4996365;28;20140;-57
2022/10/22 03:44:13;;;;;;;5.32;1.88;;;;;;;24.13;43.73;100593.56;4996957;28;20033;-56
2022/10/22 03:46:42;;;;;;;6.13;2.20;;;;;;;24.11;43.76;100590.94;4996604;28;20030;-57
2022/10/22 03:49:10;;;;;;;6.85;2.20;;;;;;;24.10;43.96;100589.19;5014185;28;20442;-58
2022/10/22 03:51:39;;;;;;;5.47;1.83;;;;;;;24.05;43.90;100584.78;5013857;28;20034;-58
2022/10/22 03:54:08;;;;;;;7.65;1.98;;;;;;;24.06;43.93;100589.16;5013628;28;20304;-57
2022/10/22 03:56:36;;;;;;;5.95;1.60;;;;;;;24.10;43.87;100588.28;5013960;28;20523;-57
2022/10/22 03:59:05;;;;;;;7.90;2.20;;;;;;;24.05;44.00;100588.28;4980383;28;20048;-58
2022/10/22 04:01:34;;;;;;;5.93;1.60;;;;;;;24.08;43.60;100595.25;5014224;28;20156;-58
2022/10/22 04:04:02;;;;;;;8.05;2.35;;;;;;;24.13;43.44;100598.81;4995663;28;20058;-58
2022/10/22 04:06:31;;;;;;;5.97;2.10;;;;;;;24.10;43.49;100602.28;5013913;28;20032;-57
2022/10/22 04:09:01;;;;;;;6.18;1.75;;;;;;;24.09;43.70;100607.50;5013874;28;20022;-57
2022/10/22 04:11:29;;;;;;;10.50;3.42;;;;;;;24.07;43.58;100610.13;5013467;28;20084;-58
2022/10/22 04:13:58;;;;;;;6.95;2.00;;;;;;;24.10;43.93;100610.16;5013534;28;20364;-57
2022/10/22 04:16:29;;;;;;;9.30;2.67;;;;;;;24.06;43.79;100612.75;5013554;28;20040;-57
2022/10/22 04:18:58;;;;;;;9.73;2.85;;;;;;;24.07;43.63;100607.50;5013305;28;20364;-56
2022/10/22 04:21:27;;;;;;;6.97;2.13;;;;;;;24.07;43.86;100612.75;5012876;28;20079;-57
2022/10/22 04:23:55;;;;;;;8.25;2.17;;;;;;;24.07;44.03;100615.38;5012212;28;20034;-57
2022/10/22 04:26:24;;;;;;;5.63;1.60;;;;;;;24.05;43.68;100611.84;4995774;28;20095;-57
2022/10/22 04:28:53;;;;;;;7.32;2.22;;;;;;;24.05;43.95;100617.09;5013406;28;20382;-56
2022/10/22 04:31:24;;;;;;;4.43;1.77;;;;;;;24.07;43.93;100614.50;5013084;28;20033;-57
2022/10/22 04:33:54;;;;;;;5.20;1.67;;;;;;;24.07;43.81;100617.13;5013326;28;20118;-55
2022/10/22 04:36:24;;;;;;;6.25;1.85;;;;;;;24.05;43.63;100622.34;5012986;28;20463;-56
2022/10/22 04:38:56;;;;;;;7.05;1.80;;;;;;;24.07;44.05;100625.84;5013418;28;20487;-54
2022/10/22 04:41:27;;;;;;;5.88;1.83;;;;;;;24.06;43.66;100626.72;5013210;28;20160;-56
2022/10/22 04:43:57;;;;;;;6.13;1.95;;;;;;;24.07;43.63;100622.38;5013205;28;20026;-57
2022/10/22 04:46:29;;;;;;;6.65;2.15;;;;;;;24.08;43.51;100629.34;5013141;28;20398;-57
2022/10/22 04:48:59;;;;;;;5.57;1.83;;;;;;;24.03;43.81;100631.06;5013553;28;20029;-55
2022/10/22 04:51:28;;;;;;;4.88;1.58;;;;;;;24.05;43.87;100639.81;5013068;28;20502;-56
2022/10/22 04:53:56;;;;;;;5.28;1.80;;;;;;;24.10;43.61;100640.69;5013023;28;20493;-57
2022/10/22 04:56:27;;;;;;;5.07;1.55;;;;;;;24.03;44.08;100644.16;5012686;28;20103;-57
2022/10/22 04:58:58;;;;;;;6.40;1.80;;;;;;;23.95;44.07;100639.69;5013207;28;20022;-57
2022/10/22 05:01:30;;;;;;;6.20;2.20;;;;;;;24.02;43.76;100638.03;5013415;28;20018;-57
2022/10/22 05:03:59;;;;;;;11.27;2.28;;;;;;;24.05;43.96;100639.81;5012576;28;20050;-57
2022/10/22 05:06:30;;;;;;;5.20;1.58;;;;;;;23.94;44.08;100624.84;5012845;28;20109;-55
2022/10/22 05:09:00;;;;;;;6.60;1.98;;;;;;;24.01;44.05;100638.88;4995778;28;20041;-56
2022/10/22 05:11:40;;;;;;;5.38;1.70;;;;;;;24.03;43.96;100638.91;5013133;28;20029;-53
2022/10/22 05:14:10;;;;;;;6.75;1.92;;;;;;;24.04;43.72;100633.69;5013252;28;20375;-55
2022/10/22 05:16:38;;;;;;;5.20;1.40;;;;;;;24.00;44.19;100631.91;4995636;28;20030;-57
2022/10/22 05:19:08;;;;;;;8.60;2.42;;;;;;;24.01;43.80;100630.16;5012431;28;20113;-57
2022/10/22 05:21:38;;;;;;;5.10;1.80;;;;;;;24.03;43.79;100638.91;5012855;28;20033;-57
2022/10/22 05:24:06;;;;;;;7.63;2.45;;;;;;;24.02;44.23;100638.03;5012944;28;20032;-57
2022/10/22 05:26:35;;;;;;;6.20;2.05;;;;;;;24.06;43.98;100642.44;4995187;28;20093;-57
2022/10/22 05:29:03;;;;;;;9.23;2.17;;;;;;;24.02;44.20;100632.78;5012660;28;20455;-57
2022/10/22 05:31:32;;;;;;;9.40;2.10;;;;;;;24.01;44.14;100632.78;5012926;28;20034;-54
2022/10/22 05:34:01;;;;;;;6.88;1.98;;;;;;;24.03;43.75;100636.31;5015452;28;20101;-57
2022/10/22 05:36:29;;;;;;;6.25;1.77;;;;;;;24.04;43.95;100641.53;5016388;28;20360;-57
2022/10/22 05:38:58;;;;;;;8.07;2.22;;;;;;;24.04;44.02;100641.53;5015779;28;20171;-57
2022/10/22 05:41:28;;;;;;;6.95;1.85;;;;;;;24.09;43.75;100646.81;5016246;28;20034;-57
2022/10/22 05:43:58;;;;;;;6.50;1.65;;;;;;;24.06;44.00;100645.06;5016130;28;20033;-57
2022/10/22 05:46:29;;;;;;;4.38;1.50;;;;;;;24.07;44.07;100648.56;5016285;28;20026;-57
2022/10/22 05:48:59;;;;;;;5.28;2.00;;;;;;;23.96;43.76;100625.75;5016005;28;20368;-55
2022/10/22 05:51:30;;;;;;;3.95;1.45;;;;;;;24.10;43.86;100649.47;4982692;28;20128;-58
2022/10/22 05:54:01;;;;;;;4.47;1.60;;;;;;;24.08;43.92;100652.91;5016081;28;20060;-56
2022/10/22 05:56:30;;;;;;;6.72;1.70;;;;;;;24.04;44.00;100648.53;4982454;28;20030;-56
2022/10/22 05:58:59;;;;;;;5.07;1.48;;;;;;;24.09;43.86;100652.94;5016058;28;20049;-55
2022/10/22 06:01:31;;;;;;;5.30;1.67;;;;;;;24.10;43.88;100649.47;5016347;28;20022;-57
2022/10/22 06:04:00;;;;;;;4.90;1.40;;;;;;;24.07;43.72;100645.94;5015724;28;20049;-57
2022/10/22 06:06:33;;;;;;;4.20;1.55;;;;;;;24.06;43.87;100659.91;5015878;28;20557;-57
2022/10/22 06:09:06;;;;;;;5.03;1.90;;;;;;;24.04;43.75;100657.25;4998393;28;20037;-57
2022/10/22 06:11:34;;;;;;;4.30;1.30;;;;;;;24.05;43.78;100653.78;4998616;28;20116;-56
2022/10/22 06:14:03;;;;;;;6.25;1.85;;;;;;;24.05;43.74;100660.78;5015368;28;20478;-58
2022/10/22 06:16:32;;;;;;;5.47;1.83;;;;;;;23.90;43.88;100637.91;4998483;28;20121;-58
2022/10/22 06:19:01;;;;;;;5.07;1.58;;;;;;;24.06;44.10;100658.16;5015749;28;20029;-57
2022/10/22 06:21:30;;;;;;;4.38;1.42;;;;;;;24.10;43.93;100661.66;5016088;28;20042;-55
2022/10/22 06:23:59;;;;;;;21.75;2.38;;;;;;;24.14;43.62;100662.59;5015284;28;20025;-54
2022/10/22 06:26:28;;;;;;;4.47;1.60;;;;;;;24.11;43.77;100663.44;5015822;28;20152;-56
2022/10/22 06:28:57;;;;;;;4.65;1.30;;;;;;;24.08;43.79;100664.28;5015426;28;20029;-56
2022/10/22 06:31:27;;;;;;;5.53;1.63;;;;;;;24.04;43.91;100667.75;4998102;28;20036;-56
2022/10/22 06:33:56;;;;;;;6.85;2.08;;;;;;;24.08;43.79;100668.63;5015221;28;20029;-56
2022/10/22 06:36:25;;;;;;;5.00;1.88;;;;;;;24.06;43.93;100684.38;4997557;28;20041;-54
2022/10/22 06:38:56;;;;;;;5.63;1.83;;;;;;;24.10;43.87;100683.53;5015051;28;20026;-54
2022/10/22 06:41:24;;;;;;;6.55;1.95;;;;;;;24.12;43.96;100681.81;5015352;28;20036;-57
2022/10/22 06:43:56;;;;;;;5.38;1.92;;;;;;;24.14;43.53;100679.19;5015444;28;20033;-56
2022/10/22 06:46:25;;;;;;;6.78;2.13;;;;;;;24.10;43.83;100688.78;5014417;28;20041;-56
2022/10/22 06:48:55;;;;;;;6.95;1.77;;;;;;;24.06;43.78;100688.75;5015076;28;20033;-56
2022/10/22 06:51:24;;;;;;;6.95;2.25;;;;;;;24.04;43.77;100688.72;4997565;28;20088;-56
2022/10/22 06:53:54;;;;;;;7.25;1.70;;;;;;;24.01;43.80;100675.56;5014955;28;20383;-54
2022/10/22 06:56:24;;;;;;;5.18;1.60;;;;;;;24.03;43.80;100675.59;5014780;28;20033;-56
2022/10/22 06:58:54;;;;;;;5.47;1.75;;;;;;;23.98;43.82;100688.69;5015207;28;20084;-51
2022/10/22 07:01:24;;;;;;;5.60;1.70;;;;;;;24.05;43.87;100685.22;5014559;28;20483;-55
2022/10/22 07:03:54;;;;;;;3.75;1.17;;;;;;;24.10;43.71;100696.63;5014562;28;20053;-56
2022/10/22 07:06:23;;;;;;;4.90;1.40;;;;;;;24.08;43.75;100698.34;5014682;28;20030;-54
2022/10/22 07:08:51;;;;;;;4.95;1.40;;;;;;;24.09;43.78;100699.22;5014665;28;20096;-57
2022/10/22 07:11:26;;;;;;;4.25;1.75;;;;;;;24.08;43.98;100706.22;5014374;28;20044;-57
2022/10/22 07:13:56;;;;;;;6.13;2.15;;;;;;;24.11;43.75;100707.97;5014823;28;20045;-57
2022/10/22 07:16:25;;;;;;;7.28;2.00;;;;;;;24.14;43.69;100712.38;5014524;28;20032;-57
2022/10/22 07:18:53;;;;;;;7.53;2.28;;;;;;;24.14;43.44;100715.00;5014479;28;20030;-55
2022/10/22 07:21:22;;;;;;;5.28;1.25;;;;;;;24.09;43.86;100718.47;5014602;28;20041;-57
2022/10/22 07:23:51;;;;;;;4.90;1.60;;;;;;;24.08;43.82;100719.31;5014709;28;20181;-56
2022/10/22 07:26:19;;;;;;;5.35;1.60;;;;;;;24.07;43.70;100719.31;5014263;28;20033;-56
2022/10/22 07:28:48;;;;;;;4.70;1.67;;;;;;;24.06;44.05;100718.44;5014195;28;20026;-57
2022/10/22 07:31:18;;;;;;;5.28;1.90;;;;;;;24.05;43.99;100715.81;5014269;28;20088;-56
2022/10/22 07:33:47;;;;;;;6.05;1.70;;;;;;;24.07;43.67;100720.19;5014490;28;20026;-57
2022/10/22 07:36:16;;;;;;;5.55;1.45;;;;;;;24.05;43.79;100721.91;5013798;28;20073;-57
2022/10/22 07:38:46;;;;;;;6.75;2.15;;;;;;;24.03;44.06;100726.25;5014492;28;20080;-56
2022/10/22 07:41:16;;;;;;;3.75;1.15;;;;;;;24.08;43.52;100731.53;5013872;28;20026;-57
2022/10/22 07:43:45;;;;;;;3.83;1.17;;;;;;;24.08;44.02;100728.91;4996581;28;20033;-57
2022/10/22 07:46:13;;;;;;;4.60;1.80;;;;;;;24.11;44.04;100736.81;4996920;28;20026;-58
2022/10/22 07:48:42;;;;;;;3.75;1.27;;;;;;;24.09;43.77;100736.81;5013734;28;20030;-58
2022/10/22 07:51:10;;;;;;;3.97;1.40;;;;;;;24.09;43.71;100736.81;5013450;28;20486;-58
2022/10/22 07:53:41;;;;;;;3.38;1.17;;;;;;;24.10;43.50;100735.03;5013917;28;20034;-57
2022/10/22 07:56:09;;;;;;;4.75;1.40;;;;;;;24.05;43.90;100740.25;5013420;28;20037;-56
2022/10/22 07:58:38;;;;;;;5.22;1.75;;;;;;;24.07;43.65;100746.38;5013996;28;20022;-56
2022/10/22 08:01:06;;;;;;;4.47;1.45;;;;;;;24.04;43.98;100746.34;5014185;28;20061;-58
2022/10/22 08:03:35;;;;;;;4.03;1.15;;;;;;;24.08;43.96;100748.16;5013522;28;20137;-56
2022/10/22 08:06:05;;;;;;;4.78;1.50;;;;;;;24.09;43.92;100754.25;5013455;28;20021;-58
2022/10/22 08:08:34;;;;;;;4.20;1.20;;;;;;;24.11;44.02;100755.16;5013744;28;20108;-58
2022/10/22 08:11:03;;;;;;;4.18;1.25;;;;;;;24.10;43.94;100753.38;5013637;28;20083;-56
2022/10/22 08:13:31;;;;;;;4.55;1.52;;;;;;;24.10;43.67;100754.28;5013527;28;20026;-58
2022/10/22 08:16:00;;;;;;;4.97;1.60;;;;;;;24.03;43.95;100744.59;5013283;28;20041;-58
2022/10/22 08:18:29;;;;;;;4.43;1.48;;;;;;;24.04;43.75;100743.72;5013307;28;20030;-58
2022/10/22 08:20:58;;;;;;;5.25;1.50;;;;;;;24.05;43.90;100750.72;5013557;28;20034;-58
2022/10/22 08:23:27;;;;;;;5.93;1.20;;;;;;;24.08;43.78;100748.16;5013715;28;20034;-57
2022/10/22 08:25:57;;;;;;;5.45;1.92;;;;;;;24.08;43.87;100762.97;5013667;28;20028;-58
2022/10/22 08:28:25;;;;;;;5.47;1.75;;;;;;;24.10;43.83;100761.25;5013317;28;20032;-56
2022/10/22 08:30:53;;;;;;;4.88;1.55;;;;;;;24.09;43.99;100757.78;4995923;28;20068;-50
2022/10/22 08:33:22;;;;;;;4.53;1.23;;;;;;;24.09;43.67;100763.00;5013295;28;20026;-57
2022/10/22 08:35:51;;;;;;;4.15;1.50;;;;;;;24.08;43.89;100763.88;5013110;28;20116;-57
2022/10/22 08:38:20;;;;;;;5.38;1.60;;;;;;;24.07;43.81;100759.50;5013461;28;20068;-58
2022/10/22 08:40:52;;;;;;;3.67;1.48;;;;;;;24.12;43.84;100757.81;5012869;28;20121;-56
2022/10/22 08:43:24;;;;;;;5.53;1.55;;;;;;;24.10;44.02;100753.38;4995796;28;20087;-56
2022/10/22 08:46:12;;;;;;;4.40;1.52;;;;;;;24.09;43.71;100759.50;4995635;28;20108;-57
2022/10/22 08:48:50;;;;;;;4.38;1.23;;;;;;;24.14;43.84;100759.56;5002271;28;20030;-57
2022/10/22 08:51:22;;;;;;;4.93;1.63;;;;;;;24.09;43.78;100759.50;4995571;28;20075;-57
2022/10/22 08:53:58;;;;;;;5.60;1.50;;;;;;;24.14;43.58;100762.19;4995456;28;20045;-55
2022/10/22 08:56:27;;;;;;;3.63;1.30;;;;;;;24.17;43.93;100767.41;5012912;28;20439;-57
2022/10/22 08:59:11;;;;;;;3.78;1.23;;;;;;;24.11;43.75;100770.88;5013237;28;20467;-57
2022/10/22 09:01:46;;;;;;;4.68;1.85;;;;;;;24.12;43.70;100770.91;4996017;28;20076;-57
2022/10/22 09:04:31;;;;;;;4.32;1.65;;;;;;;24.12;44.09;100765.66;5012768;28;20092;-56
2022/10/22 09:07:00;;;;;;;5.72;1.27;;;;;;;24.18;43.47;100772.69;4995534;28;20061;-56
2022/10/22 09:09:34;;;;;;;6.72;1.83;;;;;;;24.15;44.05;100762.19;4998979;28;20109;-56
2022/10/22 09:12:04;;;;;;;6.60;1.83;;;;;;;24.15;43.84;100769.19;4999858;28;20037;-56
2022/10/22 09:14:32;;;;;;;4.40;1.50;;;;;;;24.09;44.07;100765.63;4999266;28;20034;-57
2022/10/22 09:17:21;;;;;;;6.05;2.33;;;;;;;24.10;43.75;100767.38;4999553;28;20398;-57
2022/10/22 09:19:56;;;;;;;5.88;1.55;;;;;;;24.10;43.83;100764.75;5007068;28;20038;-58
2022/10/22 09:22:56;;;;;;;5.88;1.10;;;;;;;24.10;43.76;100775.25;5017140;28;20411;-58
2022/10/22 09:32:36;;;;;;;4.88;1.90;;;;;;;24.08;43.98;100787.47;4956400;29;20042;-57
2022/10/22 09:35:05;;;;;;;7.20;1.75;;;;;;;24.14;43.80;100796.25;4955725;29;20126;-57
2022/10/22 09:37:34;;;;;;;7.68;2.00;;;;;;;24.16;44.04;100792.78;4924002;29;20361;-58
2022/10/22 09:40:05;;;;;;;6.32;1.98;;;;;;;24.21;43.81;100787.56;4956108;29;20078;-57
2022/10/22 09:42:34;;;;;;;4.43;1.63;;;;;;;24.19;43.98;100784.94;4955965;29;20035;-57
2022/10/22 09:45:03;;;;;;;5.03;1.60;;;;;;;24.25;44.13;100777.13;4955899;29;20047;-56
2022/10/22 09:47:33;;;;;;;4.65;1.40;;;;;;;24.21;43.71;100779.69;4955820;29;20031;-57
2022/10/22 09:50:23;;;;;;;5.45;1.75;;;;;;;24.21;44.07;100782.31;4956033;29;20046;-57
2022/10/22 09:53:01;;;;;;;7.15;1.83;;;;;;;24.23;44.28;100784.13;4939844;29;20071;-58
2022/10/22 09:55:29;;;;;;;5.05;1.58;;;;;;;24.20;44.04;100778.84;4953037;28;20088;-56
2022/10/22 09:58:00;;;;;;;5.32;1.92;;;;;;;24.24;44.16;100777.97;5016139;28;20030;-55
2022/10/22 10:00:30;;;;;;;6.03;1.88;;;;;;;24.23;44.07;100775.34;5016430;28;20034;-57
2022/10/22 10:02:59;;;;;;;3.30;1.13;;;;;;;24.28;43.73;100771.03;5014680;28;20046;-57
2022/10/22 10:05:32;;;;;;;5.05;1.88;;;;;;;24.21;43.71;100764.88;5016090;28;20057;-58
2022/10/22 10:08:16;;;;;;;3.00;1.20;;;;;;;24.26;43.98;100767.53;4998966;28;20026;-58
2022/10/22 10:10:57;;;;;;;5.55;1.42;;;;;;;24.19;44.15;100765.69;5015617;28;20493;-58
2022/10/22 10:13:30;;;;;;;4.35;1.45;;;;;;;24.23;43.96;100764.88;4998422;28;20026;-58
2022/10/22 10:16:00;;;;;;;5.50;1.65;;;;;;;24.27;43.99;100767.53;5015632;28;20482;-57
2022/10/22 10:18:35;;;;;;;4.53;1.25;;;;;;;24.24;44.32;100764.88;4998122;28;20037;-58
2022/10/22 10:21:26;;;;;;;4.55;1.33;;;;;;;24.28;43.84;100777.16;5014945;28;20026;-57
2022/10/22 10:24:09;;;;;;;3.30;1.40;;;;;;;24.30;43.71;100776.28;4993014;28;20045;-58
2022/10/22 10:26:47;;;;;;;4.82;1.58;;;;;;;24.32;43.61;100770.22;5015711;28;20095;-57
2022/10/22 10:29:53;;;;;;;4.95;1.50;;;;;;;24.33;43.77;100782.41;4998413;28;20064;-56
2022/10/22 10:32:45;;;;;;;3.65;1.20;;;;;;;24.32;43.95;100782.41;5007649;28;20483;-57
2022/10/22 10:35:42;;;;;;;6.30;1.70;;;;;;;24.35;43.82;100785.94;4988329;28;20457;-57
2022/10/22 10:38:30;;;;;;;4.38;1.50;;;;;;;24.32;43.94;100785.94;5015143;28;20089;-55
2022/10/22 10:41:08;;;;;;;4.85;1.38;;;;;;;24.36;43.63;100785.06;4990539;28;20034;-57
2022/10/22 10:43:49;;;;;;;4.88;1.35;;;;;;;24.33;43.63;100776.31;5015433;28;20057;-54
2022/10/22 10:46:36;;;;;;;4.35;1.08;;;;;;;24.40;43.84;100780.75;5015760;28;20047;-57
2022/10/22 10:49:24;;;;;;;3.42;1.20;;;;;;;24.38;43.98;100790.34;5015213;28;20057;-56
2022/10/22 10:52:29;;;;;;;2.65;1.20;;;;;;;24.35;43.71;100787.69;4997369;28;20026;-57
2022/10/22 10:55:10;;;;;;;3.80;1.08;;;;;;;24.28;44.07;100777.16;5008484;28;20034;-56
2022/10/22 10:57:58;;;;;;;3.80;1.42;;;;;;;24.37;43.90;100799.06;5014987;28;20030;-57
2022/10/22 11:00:32;;;;;;;3.70;1.52;;;;;;;24.41;43.58;100801.72;5005712;28;20042;-57
2022/10/22 11:03:23;;;;;;;3.78;1.05;;;;;;;24.37;43.70;100794.69;5014211;28;20390;-56
2022/10/22 11:05:58;;;;;;;4.57;1.27;;;;;;;24.35;43.96;100793.81;5006663;28;20041;-57
2022/10/22 11:08:37;;;;;;;;;;;;;;;24.43;43.95;100786.00;5015200;28;20125;-57
2022/10/22 11:11:24;;;;;;;4.90;1.33;;;;;;;24.40;44.04;100793.88;4997505;28;19959;-57
2022/10/22 11:13:58;;;;;;;5.30;1.75;;;;;;;24.40;43.86;100791.25;5006508;28;20505;-56
2022/10/22 11:16:46;;;;;;;4.97;1.25;;;;;;;24.40;44.02;100788.63;5014396;28;20030;-57
2022/10/22 11:19:23;;;;;;;3.30;1.02;;;;;;;24.37;43.91;100788.59;5005111;28;20041;-57
2022/10/22 11:21:59;;;;;;;4.47;1.20;;;;;;;24.38;43.94;100788.59;5014496;28;20022;-57
2022/10/22 11:24:50;;;;;;;3.22;1.20;;;;;;;24.40;43.85;100780.75;5014433;28;20152;-53
2022/10/22 11:27:57;;;;;;;5.38;1.42;;;;;;;24.35;44.20;100783.31;5003765;28;20041;-57
2022/10/22 11:30:29;;;;;;;3.92;1.17;;;;;;;24.39;44.15;100782.47;5006898;28;20046;-57
2022/10/22 11:33:00;;;;;;;2.25;1.13;;;;;;;24.39;43.91;100765.88;4996921;28;20033;-54
2022/10/22 11:35:32;;;;;;;2.92;0.88;;;;;;;24.38;44.37;100759.75;4997013;28;20022;-57
2022/10/22 11:38:02;;;;;;;3.50;1.20;;;;;;;24.35;44.33;100769.34;4996947;28;20026;-56
2022/10/22 11:40:48;;;;;;;3.17;1.08;;;;;;;24.30;44.14;100761.44;5013740;28;20542;-58
2022/10/22 11:43:52;;;;;;;3.55;1.20;;;;;;;24.28;44.74;100763.19;4996724;28;20022;-57
2022/10/22 11:46:21;;;;;;;7.20;1.65;;;;;;;24.36;44.52;100769.34;5013922;28;20034;-58
2022/10/22 11:49:08;;;;;;;5.05;1.60;;;;;;;24.34;44.64;100770.22;5014174;28;20497;-57
2022/10/22 11:51:38;;;;;;;3.83;0.90;;;;;;;24.37;44.33;100763.25;5014185;28;20037;-57
2022/10/22 11:54:26;;;;;;;4.90;1.25;;;;;;;24.37;44.45;100754.50;5014266;28;20105;-57
2022/10/22 11:57:14;;;;;;;4.90;1.10;;;;;;;24.40;44.43;100760.66;5014120;28;20057;-56